Jorge Arteaga

Olheiro - Monterrey
6 Mar 2029
Terça-feira
Processo

Personalidade

Adaptabilidade (14) Ambição (18) Controvérsia (14) Lealdade (13) Pressão (6) Profissionalismo (10) Espírito Esportivo (16) Temperamento (13)

Perfil

Estilo de Treinamento Democrático
Licença Nacional B
Determinação 8
Gestão de Pessoas 6
Motivação 8
Disciplina 6
Satisfação no Trabalho
100%
Fadiga
0%
Função Olheiro
Salário 76.2K p/s
Contrato 14.03.2030

Desempenho

Comportamento Bom
Eficácia do Treinamento
59%
Desenvolvimento do Jogador
75%
Prevenção de Lesões
45%
Implementação Tática
75%

Eventos Recentes

Participou de uma reunião de recrutamento 42d atrás
Avaliou um jogador 49d atrás
Participou de uma reunião de recrutamento 49d atrás
Participando de desenvolvimento profissional 49d atrás
Participando de desenvolvimento profissional 49d atrás
Participando de desenvolvimento profissional 49d atrás
Participando de desenvolvimento profissional 49d atrás
Participando de desenvolvimento profissional 49d atrás

Monitorando agora

129
Jogador Clube Status Habilidade Confiança Observado Última observação Último voto
Ronnie Harvey Colchester United Ativo 104 / 101 40% 2 31.01.2029 -
Lucas Jetten KV Oostende Ativo 121 / 129 40% 1 31.01.2029 -
Keyane el Ouansaidi Morelia Ativo 112 / 106 40% 1 15.01.2029 -
Daniel Banjaqui Benfica Ativo 140 / 134 40% 7 07.01.2029 -
Jack Shorrock Port Vale Ativo 98 / 111 40% 2 07.01.2029 -
Mahmoud Yaqoob Al Ain Ativo 140 / 132 40% 2 12.08.2028 -
Adham Farid Ismaily Ativo 118 / 110 40% 1 12.08.2028 -
Jorge Salinas Racing Santander Ativo 137 / 138 40% 2 07.08.2028 -
Bernardo Lima Porto Ativo 115 / 124 40% 1 01.08.2028 -
Joe Emery Salford City Ativo 98 / 102 40% 2 31.07.2028 -
Pedro Pedraza Pachuca Ativo 131 / 129 55% 1 31.07.2028 -
Buba Sangaré Elche Ativo 144 / 142 40% 3 30.07.2028 -
Filipe Sousa Porto Ativo 108 / 110 40% 2 30.07.2028 -
Martín Jiménez Universidad de Concepcion Ativo 111 / 108 40% 1 28.07.2028 -
Diego Cheuquepal Racing Ativo 102 / 105 40% 1 26.07.2028 -
Gideon Manaseh Ikorodu City Ativo 109 / 96 40% 2 25.07.2028 -
Owen Eames Milton Keynes Dons Ativo 97 / 108 40% 2 25.07.2028 -
Federico Nardin Alcione Milano Ativo 103 / 105 40% 2 24.07.2028 -
Joel Ezra Enyimba Ativo 101 / 107 40% 1 20.07.2028 -
Gerardo Del Vecchio Rah Ahan Ativo 99 / 113 40% 1 20.07.2028 -
Cheveyo Tsawa Club Brugge Ativo 133 / 135 40% 1 17.07.2028 -
Martim Cunha Porto Ativo 108 / 118 40% 1 12.07.2028 -
Callum Tripp Milton Keynes Dons Ativo 91 / 98 40% 1 12.07.2028 -
Agustín Medina River Plate Ativo 120 / 126 40% 1 11.07.2028 -
Zahir Ibarra Eibar Ativo 105 / 112 40% 1 03.07.2028 -
Jorthy Mokio Ajax Ativo 139 / 140 40% 1 03.07.2028 -
Aidan West Gillingham Ativo 99 / 100 40% 1 28.06.2028 -
Dro RC Lens Ativo 132 / 138 40% 1 21.06.2028 -
Álex Lizancos Burgos Ativo 123 / 130 40% 1 14.06.2028 -
Dani Lorenzo Málaga Ativo 131 / 130 40% 1 14.06.2028 -
Juan Dinenno Pumas UNAM Ativo 114 / 123 55% 1 07.06.2028 -
Víctor Valverde Albacete Ativo 124 / 128 40% 1 01.06.2028 -
Pablo Sáenz Oviedo Ativo 124 / 128 40% 1 01.06.2028 -
Agustín Obregón River Plate Ativo 104 / 116 40% 1 31.01.2028 -
Juan Giménez Rosario Central Ativo 129 / 122 40% 1 31.01.2028 -
Kaio Jorge Cruzeiro Ativo 133 / 140 40% 1 28.01.2028 -
Lucas Acosta Liverpool Montevideo Ativo 113 / 115 40% 1 28.01.2028 -
Pape Diong Westerlo Ativo 112 / 129 40% 1 27.01.2028 -
Emiliano Saliadarre Miramar Misiones Ativo 116 / 113 40% 1 24.01.2028 -
Alejo Veliz Bahia Ativo 147 / 135 40% 1 22.01.2028 -
Franco Pérez Boston River Ativo 117 / 105 40% 1 22.01.2028 -
Junior Paredes Trujillanos Ativo 109 / 107 40% 1 18.01.2028 -
Mateo Castillo Real Cartagena Ativo 120 / 126 40% 3 11.01.2028 -
Alexander Díaz Cerro Porteno Ativo 133 / 120 40% 1 11.01.2028 -
Lautaro Guzmán Racing Club Ativo 119 / 125 40% 1 10.01.2028 -
Tiago Palacios Estudiantes Ativo 138 / 132 40% 1 10.01.2028 -
Facundo Torres Austin FC Ativo 147 / 139 40% 2 03.01.2028 -
Andrés Gómez Vasco da Gama Ativo 136 / 136 40% 1 03.01.2028 -
Juan Manuel Zapata Envigado Ativo 120 / 116 40% 2 02.01.2028 -
Manuel Duarte Barracas Central Ativo 135 / 122 40% 1 02.01.2028 -
Samuel Brolin Kalmar FF Ativo 110 / 119 40% 1 30.08.2027 -
Roman Celentano FC Cincinnati Ativo 124 / 123 40% 2 29.08.2027 -
CJ dos Santos San Diego Football Club Ativo 105 / 112 40% 2 29.08.2027 -
Tarek Bousseder ES Setif Ativo 127 / 108 40% 1 27.08.2027 -
Fabrizio Correa Fenix Ativo 125 / 124 40% 1 26.08.2027 -
Tomás Ahumada Audax Italiano Ativo 111 / 118 40% 1 24.08.2027 -
Diego Enríquez Sporting Cristal Ativo 139 / 133 40% 4 23.08.2027 -
Diego Romero Universitario Ativo 127 / 126 40% 1 23.08.2027 -
Antonio Galeano Remo Stars Ativo 134 / 120 40% 3 22.08.2027 -
Delvin Alfonzo Deportivo Tachira Ativo 122 / 115 40% 1 21.08.2027 -
Santiago Toloza O'Higgins Ativo 133 / 124 40% 1 20.08.2027 -
Francesco D'Alterio Ternana Ativo 122 / 110 40% 1 19.08.2027 -
Ignacio Schor O'Higgins Ativo 112 / 123 40% 4 17.08.2027 -
Elia Caprile Cagliari Ativo 148 / 147 40% 3 17.08.2027 -
Francisco Salerno Defensores Unidos Ativo 102 / 112 40% 1 17.08.2027 -
Jon Magunazelaia Eibar Ativo 116 / 121 40% 3 16.08.2027 -
Cesare Galeotti Trapani Ativo 119 / 113 40% 1 15.08.2027 -
Andri Guðjohnsen Blackburn Rovers Ativo 118 / 129 40% 2 09.08.2027 -
Cameron Archer Southampton Ativo 138 / 128 40% 1 09.08.2027 -
Richard Koné Queens Park Rangers Ativo 130 / 132 40% 1 04.08.2027 -
Alex Robertson Cardiff City Ativo 123 / 125 40% 2 03.08.2027 -
Rumarn Burrell Queens Park Rangers Ativo 141 / 126 40% 2 02.08.2027 -
Radek Vítek Middlesbrough Ativo 153 / 147 40% 1 01.08.2027 -
Tammer Kumar West Bromwich Albion Ativo 117 / 124 40% 2 30.07.2027 -
Maduka Okoye Udinese Ativo 142 / 141 40% 1 30.07.2027 -
Andre Brooks Sheffield United Ativo 129 / 134 40% 1 29.07.2027 -
Dale Taylor Blackpool Ativo 124 / 114 40% 4 28.07.2027 -
Jovon Makama Norwich City Ativo 134 / 129 40% 1 28.07.2027 -
Mees Rijks Bristol Rovers Ativo 117 / 116 40% 3 26.07.2027 -
Malik Mothersille Stockport County Ativo 127 / 120 40% 1 23.07.2027 -
Koki Saito Queens Park Rangers Ativo 129 / 126 40% 1 23.07.2027 -
Enzo Loiodice FC Nantes Ativo 139 / 131 40% 1 23.07.2027 -
Kelly Saravanan Salford City Ativo 113 / 120 40% 4 21.07.2027 -
John Yeboah Venezia Ativo 128 / 121 40% 2 17.07.2027 -
Brayan Alcócer Tranmere Rovers Ativo 113 / 109 40% 1 14.07.2027 -
Max Conway Bolton Wanderers Ativo 124 / 122 40% 2 13.07.2027 -
Sebastián Navarro Fortaleza CEIF Ativo 134 / 120 40% 3 10.07.2027 -
José Barreto Pacos de Ferreira Ativo 112 / 117 40% 1 08.07.2027 -
Clemente Montes Standard Liege Ativo 124 / 122 40% 2 07.07.2027 -
Ezequiel Bullaude Santos Laguna Ativo 124 / 122 40% 1 05.07.2027 -
Etiosa Ighodaro Kaizer Chiefs Ativo 105 / 118 40% 1 02.07.2027 -
Hector Kyprianou Watford Ativo 123 / 121 40% 1 01.07.2027 -
Mathieu Patouillet Stade Brestois Ativo 121 / 126 40% 1 28.06.2027 -
Tamble Monteiro Rio Ave Ativo 121 / 119 40% 1 25.06.2027 -
Sam Bell Bristol City Ativo 117 / 121 40% 1 21.06.2027 -
Harvey Blair Portsmouth Ativo 123 / 119 40% 2 15.06.2027 -
Agustín Curruhinca Fatih Karagumruk Ativo 116 / 116 40% 1 13.06.2027 -
George Earthy Reading Ativo 117 / 119 40% 1 11.06.2027 -
Diego Lainez Tigres Ativo 131 / 136 40% 1 10.06.2027 -
Juan Diego Castillo Vitoria Guimaraes Ativo 134 / 125 40% 1 08.06.2027 -
Bernardo Fontes Braga Ativo 136 / 132 40% 1 08.06.2027 -
Evidence Makgopa Orlando Pirates Ativo 106 / 110 40% 1 08.06.2027 -
Ryunosuke Sato Valencia Ativo 137 / 134 40% 1 07.06.2027 -
Job Ochieng Real Sociedad Ativo 115 / 105 40% 1 02.06.2027 -
Bernat Guiu Virtus Entella Ativo 117 / 113 40% 1 02.06.2027 -
Cezary Miszta Rio Ave Ativo 142 / 138 40% 1 02.06.2027 -
Armstrong Oko-Flex Levski Ativo 107 / 124 40% 1 31.01.2027 Mais informações
Hélio Varela Maccabi Tel Aviv Ativo 116 / 127 40% 1 29.01.2027 -
Honest Ahanor Udinese Ativo 119 / 130 40% 2 28.01.2027 -
Axel Frugone Defensor Sporting Ativo 103 / 121 40% 1 27.01.2027 -
Dries Vanaken Mouscron Ativo 118 / 130 40% 2 23.01.2027 -
Ignacio Perruzzi San Lorenzo Ativo 109 / 125 40% 1 23.01.2027 -
Santiago Fernández Talleres Ativo 124 / 119 40% 2 21.01.2027 -
James Dornelly Peterborough United Ativo 104 / 111 40% 2 19.01.2027 -
Santiago Sosa Yung Valencia Ativo 129 / 133 40% 1 19.01.2027 -
Cian Ashford Cardiff City Ativo 130 / 118 40% 1 12.01.2027 -
Fran Villalba Santos Laguna Ativo 123 / 117 51% 1 11.01.2027 -
Joaquín Gho Argentinos Juniors Ativo 128 / 127 40% 2 10.01.2027 -
Kyriani Sabbe Club Brugge Ativo 130 / 132 40% 1 08.01.2027 -
Victor Kristiansen Leicester City Ativo 123 / 131 40% 2 07.01.2027 -
Alán Bautista Pachuca Ativo 106 / 116 40% 1 06.01.2027 -
Matheus Gonçalves Al-Ahli Ativo 107 / 136 40% 1 04.01.2027 -
Nahuel Ulariaga Guadalajara Ativo 125 / 125 40% 1 02.01.2027 -
Bénie Traoré New York City Ativo 121 / 120 40% 2 27.08.2026 -
João Klauss LA Galaxy Ativo 133 / 130 40% 1 19.08.2026 -
Carlo Adriano Queretaro Ativo 101 / 113 51% 1 17.08.2026 -
Kelvin Yeboah Minnesota United FC Ativo 114 / 121 40% 1 13.08.2026 -
Morgan Guilavogui Real Salt Lake Ativo 116 / 128 40% 1 13.08.2026 -
Enzo Vázquez Central Norte Ativo 99 / 105 40% 1 01.08.2026 -